Time;durP1;ratioP1;P1;durP2;ratioP2;P2;SDS_P1;SDS_P2;PMS_P1;PMS_P2;Temp;Humidity;BMP_temperature;BMP_pressure;BME280_temperature;BME280_humidity;BME280_pressure;Samples;Min_cycle;Max_cycle;Signal;HPM_P1;HPM_P2
2022/06/07 00:00:32;;;;;;;17.98;13.68;;;12.50;99.90;;;;;;4882881;29;20086;-80
2022/06/07 00:02:58;;;;;;;21.40;14.02;;;12.50;99.90;;;;;;4874669;29;20481;-80
2022/06/07 00:05:24;;;;;;;19.23;13.40;;;12.50;99.90;;;;;;4888214;29;20166;-80
2022/06/07 00:07:51;;;;;;;17.98;13.77;;;12.50;99.90;;;;;;4887216;29;20597;-80
2022/06/07 00:10:17;;;;;;;20.35;12.98;;;12.50;99.90;;;;;;4881757;29;20040;-80
2022/06/07 00:12:43;;;;;;;19.88;13.40;;;12.50;99.90;;;;;;4876641;29;20040;-81
2022/06/07 00:15:09;;;;;;;20.52;13.18;;;12.60;99.90;;;;;;4887082;29;20096;-80
2022/06/07 00:17:35;;;;;;;19.70;13.63;;;12.60;99.90;;;;;;4913071;29;20122;-80
2022/06/07 00:20:01;;;;;;;19.83;13.13;;;12.50;99.90;;;;;;4895674;29;20052;-80
2022/06/07 00:22:27;;;;;;;20.35;13.70;;;12.50;99.90;;;;;;4897355;29;20044;-80
2022/06/07 00:24:53;;;;;;;18.60;14.45;;;12.50;99.90;;;;;;4901749;29;20048;-80
2022/06/07 00:27:19;;;;;;;17.73;14.07;;;12.60;99.90;;;;;;4913238;29;20076;-80
2022/06/07 00:29:46;;;;;;;18.35;13.32;;;12.60;99.90;;;;;;4898901;29;20390;-81
2022/06/07 00:32:14;;;;;;;21.00;13.55;;;12.60;99.90;;;;;;4881079;29;20049;-89
2022/06/07 00:34:40;;;;;;;22.50;14.13;;;12.60;99.90;;;;;;4885701;29;20045;-89
2022/06/07 00:37:05;;;;;;;19.52;14.68;;;12.60;99.90;;;;;;4879326;29;20050;-89
2022/06/07 00:39:31;;;;;;;18.80;13.95;;;12.70;99.90;;;;;;4901018;29;20036;-89
2022/06/07 00:41:57;;;;;;;19.48;14.65;;;12.50;99.90;;;;;;4887774;29;20103;-88
2022/06/07 00:44:31;;;;;;;22.17;15.32;;;12.60;99.90;;;;;;4887602;29;20119;-89
2022/06/07 00:47:02;;;;;;;22.30;14.25;;;12.60;99.90;;;;;;4902131;29;20055;-89
2022/06/07 00:49:37;;;;;;;20.65;14.10;;;12.50;99.90;;;;;;4889166;29;20040;-89
2022/06/07 00:52:03;;;;;;;17.17;13.23;;;12.60;99.90;;;;;;4889368;29;20135;-89
2022/06/07 00:54:31;;;;;;;18.88;13.65;;;12.60;99.90;;;;;;4856604;29;20127;-89
2022/06/07 00:56:57;;;;;;;16.40;13.20;;;12.60;99.90;;;;;;4883128;29;20512;-89
2022/06/07 00:59:24;;;;;;;17.30;13.60;;;12.60;99.90;;;;;;4882987;29;20045;-89
2022/06/07 01:01:50;;;;;;;17.90;13.70;;;12.60;99.90;;;;;;4880561;29;20060;-88
2022/06/07 01:04:17;;;;;;;18.60;13.90;;;12.60;99.90;;;;;;4861745;29;20424;-89
2022/06/07 01:12:11;;;;;;;17.25;12.43;;;12.60;99.90;;;;;;4887883;29;20059;-89
2022/06/07 01:14:37;;;;;;;17.48;12.65;;;12.60;99.90;;;;;;4891923;29;20044;-88
2022/06/07 01:17:04;;;;;;;17.38;12.55;;;12.70;99.90;;;;;;4907855;29;20477;-88
2022/06/07 01:19:30;;;;;;;17.38;12.75;;;12.70;99.90;;;;;;4879645;29;20036;-88
2022/06/07 01:21:55;;;;;;;17.33;11.77;;;12.70;99.90;;;;;;4857369;29;20067;-88
2022/06/07 01:24:21;;;;;;;15.88;11.45;;;12.70;99.90;;;;;;4879437;29;20050;-88
2022/06/07 01:26:47;;;;;;;17.13;11.57;;;12.70;99.90;;;;;;4852577;29;20078;-88
2022/06/07 01:29:15;;;;;;;15.70;11.68;;;12.70;99.90;;;;;;4886961;29;20044;-89
2022/06/07 01:31:41;;;;;;;18.83;12.27;;;12.70;99.90;;;;;;4899796;29;20055;-88
2022/06/07 01:34:07;;;;;;;18.10;11.98;;;12.70;99.90;;;;;;4890736;29;20515;-89
2022/06/07 01:36:33;;;;;;;18.02;12.20;;;12.70;99.90;;;;;;4892935;29;20032;-89
2022/06/07 01:41:55;;;;;;;15.23;11.32;;;12.70;99.90;;;;;;4892531;29;20579;-88
2022/06/07 01:44:27;;;;;;;18.40;12.48;;;12.70;99.90;;;;;;4899471;29;20043;-89
2022/06/07 01:46:54;;;;;;;16.40;11.38;;;12.70;99.90;;;;;;4901817;29;20401;-88
2022/06/07 01:49:20;;;;;;;17.45;11.82;;;12.70;99.90;;;;;;4884908;29;20127;-89
2022/06/07 01:51:47;;;;;;;16.48;12.20;;;12.70;99.90;;;;;;4872074;29;20072;-89
2022/06/07 01:54:14;;;;;;;18.10;12.68;;;12.70;99.90;;;;;;4886177;29;20040;-90
2022/06/07 01:56:40;;;;;;;17.63;12.52;;;12.70;99.90;;;;;;4889614;29;20052;-89
2022/06/07 01:59:06;;;;;;;16.30;12.15;;;12.70;99.90;;;;;;4915766;29;20043;-89
2022/06/07 02:01:33;;;;;;;18.48;12.35;;;12.70;99.90;;;;;;4888248;29;20151;-89
2022/06/07 02:03:59;;;;;;;17.23;11.75;;;12.70;99.90;;;;;;4868142;29;20061;-89
2022/06/07 02:06:24;;;;;;;18.52;12.10;;;12.80;99.90;;;;;;4869114;29;20051;-89
2022/06/07 02:08:50;;;;;;;18.75;12.80;;;12.80;99.90;;;;;;4886366;29;20108;-89
2022/06/07 02:11:20;;;;;;;18.70;12.88;;;12.70;99.90;;;;;;4873046;29;20040;-89
2022/06/07 02:13:46;;;;;;;17.25;12.20;;;12.70;99.90;;;;;;4881755;29;20127;-90
2022/06/07 02:16:14;;;;;;;17.73;11.95;;;12.70;99.90;;;;;;4888379;29;20044;-89
2022/06/07 02:18:39;;;;;;;15.02;10.52;;;12.80;99.90;;;;;;4866019;29;20044;-89
2022/06/07 02:21:07;;;;;;;15.50;11.32;;;12.80;99.90;;;;;;4873460;29;20039;-89
2022/06/07 02:23:34;;;;;;;17.50;11.57;;;12.80;99.90;;;;;;4893630;29;20498;-88
2022/06/07 02:26:36;;;;;;;18.48;12.07;;;12.80;99.90;;;;;;4902828;29;20052;-89
2022/06/07 02:29:11;;;;;;;19.55;11.98;;;12.80;99.90;;;;;;4899954;29;20052;-89
2022/06/07 02:31:42;;;;;;;17.75;11.95;;;13.30;99.90;;;;;;4900028;29;20075;-89
2022/06/07 02:34:09;;;;;;;15.65;11.32;;;12.80;99.90;;;;;;4889248;29;20047;-89
2022/06/07 02:36:36;;;;;;;17.20;11.15;;;12.80;99.90;;;;;;4894130;29;20046;-90
2022/06/07 02:39:02;;;;;;;14.23;11.32;;;12.70;99.90;;;;;;4884897;29;20047;-89
2022/06/07 02:41:30;;;;;;;16.27;11.77;;;12.80;99.90;;;;;;4896903;29;20040;-89
2022/06/07 02:43:56;;;;;;;15.13;10.07;;;12.80;99.90;;;;;;4889642;29;20048;-89
2022/06/07 02:46:22;;;;;;;18.95;11.88;;;12.80;99.90;;;;;;4887798;29;20072;-88
2022/06/07 02:48:47;;;;;;;18.48;11.77;;;12.80;99.90;;;;;;4893010;29;20031;-89
2022/06/07 02:51:13;;;;;;;17.25;11.27;;;12.80;99.90;;;;;;4908969;29;20111;-89
2022/06/07 02:53:39;;;;;;;18.20;11.98;;;12.80;99.90;;;;;;4923117;29;20051;-88
2022/06/07 02:56:05;;;;;;;28.38;12.13;;;12.80;99.90;;;;;;4908621;29;20032;-88
2022/06/07 02:58:31;;;;;;;17.67;11.23;;;12.80;99.90;;;;;;4891787;29;20116;-89
2022/06/07 03:01:00;;;;;;;18.33;11.13;;;12.80;99.90;;;;;;4887243;29;20044;-89
2022/06/07 03:03:26;;;;;;;19.90;12.02;;;12.80;99.90;;;;;;4901663;29;20047;-90
2022/06/07 03:05:52;;;;;;;18.30;12.05;;;12.80;99.90;;;;;;4874749;29;20493;-88
2022/06/07 03:08:18;;;;;;;18.60;11.40;;;12.80;99.90;;;;;;4882524;29;20071;-89
2022/06/07 03:10:48;;;;;;;15.88;11.07;;;12.80;99.90;;;;;;4888217;29;20046;-89
2022/06/07 03:13:16;;;;;;;16.40;11.35;;;12.80;99.90;;;;;;4896930;29;20497;-89
2022/06/07 03:15:42;;;;;;;17.40;11.35;;;12.80;99.90;;;;;;4893607;29;20051;-90
2022/06/07 03:18:09;;;;;;;17.95;11.18;;;12.80;99.90;;;;;;4903249;29;20076;-89
2022/06/07 03:20:35;;;;;;;14.95;11.15;;;12.80;99.90;;;;;;4904083;29;20044;-89
2022/06/07 03:23:01;;;;;;;17.23;11.85;;;12.80;99.90;;;;;;4889318;29;20051;-89
2022/06/07 03:25:27;;;;;;;17.50;12.40;;;12.80;99.90;;;;;;4870746;29;20040;-88
2022/06/07 03:27:53;;;;;;;16.95;11.55;;;12.80;99.90;;;;;;4848901;29;20040;-89
2022/06/07 03:30:19;;;;;;;16.77;11.80;;;12.80;99.90;;;;;;4893382;29;20401;-89
2022/06/07 03:32:45;;;;;;;16.05;11.27;;;12.80;99.90;;;;;;4858746;29;20127;-91
2022/06/07 03:35:12;;;;;;;17.08;11.57;;;12.80;99.90;;;;;;4889576;29;20047;-90
2022/06/07 03:37:39;;;;;;;15.95;11.93;;;12.70;99.90;;;;;;4896710;29;20531;-89
2022/06/07 03:40:10;;;;;;;17.48;11.75;;;12.70;99.90;;;;;;4888283;29;20040;-88
2022/06/07 03:42:36;;;;;;;15.85;11.40;;;12.70;99.90;;;;;;4888503;29;20190;-89
2022/06/07 03:45:03;;;;;;;18.45;11.55;;;12.70;99.90;;;;;;4870515;29;20044;-89
2022/06/07 03:47:28;;;;;;;16.10;12.10;;;12.70;99.90;;;;;;4899768;29;20059;-89
2022/06/07 03:49:54;;;;;;;15.43;11.55;;;12.00;99.90;;;;;;4859059;29;20048;-89
2022/06/07 03:52:20;;;;;;;16.58;11.73;;;12.70;99.90;;;;;;4864851;29;20516;-89
2022/06/07 03:54:45;;;;;;;17.17;11.80;;;12.70;99.90;;;;;;4869353;29;20097;-88
2022/06/07 03:57:12;;;;;;;15.90;11.18;;;12.70;99.90;;;;;;4872777;29;20702;-88
2022/06/07 03:59:38;;;;;;;18.15;11.35;;;12.70;99.90;;;;;;4872736;29;20040;-89
2022/06/07 04:02:05;;;;;;;16.02;11.05;;;12.70;99.90;;;;;;4868668;29;20051;-89
2022/06/07 04:04:31;;;;;;;18.20;12.10;;;12.70;99.90;;;;;;4903571;29;20052;-88
2022/06/07 04:09:41;;;;;;;17.15;11.75;;;12.70;99.90;;;;;;4893495;29;20051;-89
2022/06/07 04:12:12;;;;;;;15.48;10.88;;;12.70;99.90;;;;;;4874241;29;20591;-89
2022/06/07 04:14:40;;;;;;;14.57;10.80;;;12.70;99.90;;;;;;4886735;29;20037;-89
2022/06/07 04:17:06;;;;;;;15.32;11.43;;;12.70;99.90;;;;;;4884833;29;20438;-89
2022/06/07 04:19:37;;;;;;;15.55;10.88;;;12.70;99.90;;;;;;4871926;29;20036;-89
2022/06/07 04:22:04;;;;;;;16.67;11.60;;;12.80;99.90;;;;;;4904011;29;20409;-90
2022/06/07 04:24:30;;;;;;;16.10;11.45;;;12.80;99.90;;;;;;4895569;29;20056;-90
2022/06/07 04:26:56;;;;;;;18.05;11.75;;;12.80;99.90;;;;;;4874333;29;20047;-89
2022/06/07 04:29:23;;;;;;;18.60;12.15;;;12.70;99.90;;;;;;4881973;29;20062;-89
2022/06/07 04:31:49;;;;;;;18.15;12.50;;;12.80;99.90;;;;;;4875027;29;20044;-89
2022/06/07 04:34:18;;;;;;;16.83;12.02;;;12.80;99.90;;;;;;4891680;29;20062;-89
2022/06/07 04:36:44;;;;;;;19.45;12.27;;;12.80;99.90;;;;;;4898841;29;20051;-89
2022/06/07 04:39:11;;;;;;;20.17;12.57;;;12.80;99.90;;;;;;4885552;29;20409;-88
2022/06/07 04:41:37;;;;;;;15.80;10.80;;;12.80;99.90;;;;;;4881484;29;20036;-89
2022/06/07 04:44:03;;;;;;;19.88;12.45;;;12.80;99.90;;;;;;4874539;29;20058;-89
2022/06/07 04:46:28;;;;;;;18.40;12.48;;;12.90;99.90;;;;;;4880418;29;20051;-89
2022/06/07 04:48:55;;;;;;;19.30;12.35;;;12.90;99.90;;;;;;4882311;29;20052;-90
2022/06/07 04:51:23;;;;;;;15.38;12.75;;;12.90;99.90;;;;;;4887277;29;20053;-89
2022/06/07 04:53:50;;;;;;;18.08;12.35;;;12.90;99.90;;;;;;4904991;29;20401;-89
2022/06/07 04:56:23;;;;;;;16.45;12.05;;;12.90;99.90;;;;;;4890689;29;20051;-89
2022/06/07 04:58:49;;;;;;;16.38;12.10;;;12.90;99.90;;;;;;4905346;29;20038;-89
2022/06/07 05:01:18;;;;;;;18.95;12.60;;;13.00;99.90;;;;;;4910021;29;20480;-89
2022/06/07 05:03:43;;;;;;;18.65;12.63;;;13.00;99.90;;;;;;4886780;29;20056;-88
2022/06/07 05:06:18;;;;;;;18.48;12.15;;;13.00;99.90;;;;;;4882906;29;20420;-90
2022/06/07 05:08:43;;;;;;;16.05;11.27;;;13.00;99.90;;;;;;4900655;29;20044;-89
2022/06/07 05:11:09;;;;;;;19.08;12.45;;;13.00;99.90;;;;;;4872670;29;20052;-90
2022/06/07 05:13:35;;;;;;;17.67;11.63;;;13.10;99.90;;;;;;4890201;29;20393;-89
2022/06/07 05:16:01;;;;;;;18.00;12.20;;;13.10;99.90;;;;;;4886075;29;20036;-90
2022/06/07 05:18:26;;;;;;;19.25;12.73;;;13.10;99.90;;;;;;4870479;29;20067;-89
2022/06/07 05:20:52;;;;;;;19.60;12.98;;;13.10;99.90;;;;;;4859573;29;20135;-89
2022/06/07 05:23:18;;;;;;;18.75;12.35;;;13.20;99.90;;;;;;4886404;29;20461;-89
2022/06/07 05:26:20;;;;;;;16.73;12.80;;;13.10;99.90;;;;;;4875000;29;20454;-90
2022/06/07 05:28:46;;;;;;;18.58;13.52;;;13.20;99.90;;;;;;4843364;29;20069;-89
2022/06/07 05:31:12;;;;;;;17.83;12.73;;;13.20;99.90;;;;;;4890974;29;20405;-89
2022/06/07 05:33:38;;;;;;;19.30;13.93;;;13.20;99.90;;;;;;4907504;29;20032;-89
2022/06/07 05:36:04;;;;;;;20.80;13.88;;;13.20;99.90;;;;;;4909158;29;20033;-89
2022/06/07 05:38:30;;;;;;;18.58;13.05;;;13.20;99.90;;;;;;4874631;29;20170;-90
2022/06/07 05:40:56;;;;;;;16.77;12.75;;;13.30;99.90;;;;;;4870714;29;20083;-89
2022/06/07 05:43:22;;;;;;;16.35;11.93;;;13.30;99.90;;;;;;4870413;29;20077;-89
2022/06/07 05:45:49;;;;;;;21.05;13.30;;;13.30;99.90;;;;;;4894723;29;20052;-90
2022/06/07 05:48:15;;;;;;;22.92;12.57;;;13.30;99.90;;;;;;4888991;29;20071;-89
2022/06/07 05:50:43;;;;;;;19.98;12.63;;;13.30;99.90;;;;;;4879794;29;20043;-88
2022/06/07 05:53:09;;;;;;;15.13;12.02;;;13.40;99.90;;;;;;4873978;29;20063;-88
2022/06/07 05:55:35;;;;;;;18.40;12.52;;;13.40;99.90;;;;;;4856506;29;20040;-87
2022/06/07 05:58:01;;;;;;;17.50;12.57;;;13.40;99.90;;;;;;4899497;29;20044;-87
2022/06/07 06:00:40;;;;;;;17.77;12.68;;;13.30;99.90;;;;;;4888346;29;20123;-87
2022/06/07 06:03:07;;;;;;;17.70;12.25;;;13.30;99.90;;;;;;4881035;29;20093;-88
2022/06/07 06:05:33;;;;;;;19.52;13.35;;;13.30;99.90;;;;;;4875856;29;20509;-88
2022/06/07 06:10:44;;;;;;;18.48;12.30;;;13.30;99.90;;;;;;4870849;29;20045;-88
2022/06/07 06:13:10;;;;;;;14.90;12.02;;;13.30;99.90;;;;;;4863014;29;20051;-87
2022/06/07 06:15:36;;;;;;;20.05;13.10;;;13.30;99.90;;;;;;4860199;29;20410;-86
2022/06/07 06:18:03;;;;;;;17.65;12.40;;;13.30;99.90;;;;;;4875554;29;20048;-91
2022/06/07 06:20:29;;;;;;;19.80;11.93;;;13.30;99.90;;;;;;4863882;29;20137;-86
2022/06/07 06:22:55;;;;;;;18.60;12.48;;;13.30;99.90;;;;;;4847571;29;20082;-87
2022/06/07 06:25:20;;;;;;;20.00;13.07;;;13.30;99.90;;;;;;4878798;29;20076;-89
2022/06/07 06:27:46;;;;;;;21.13;12.48;;;13.30;99.90;;;;;;4877242;29;20044;-86
2022/06/07 06:30:12;;;;;;;18.20;13.52;;;13.30;99.90;;;;;;4862341;29;20041;-88
2022/06/07 06:32:38;;;;;;;22.92;12.63;;;13.20;99.90;;;;;;4867916;29;20037;-87
2022/06/07 06:35:04;;;;;;;20.20;13.07;;;13.20;99.90;;;;;;4850352;29;20401;-87
2022/06/07 06:37:31;;;;;;;16.50;12.25;;;13.20;99.90;;;;;;4889208;29;20127;-86
2022/06/07 06:39:56;;;;;;;18.20;13.20;;;13.20;99.90;;;;;;4869497;29;20047;-86
2022/06/07 06:42:22;;;;;;;21.15;12.43;;;13.20;99.90;;;;;;4849346;29;20041;-87
2022/06/07 06:44:48;;;;;;;22.48;13.00;;;13.20;99.90;;;;;;4857532;29;20051;-87
2022/06/07 06:47:14;;;;;;;18.77;12.32;;;13.20;99.90;;;;;;4850927;29;20048;-87
2022/06/07 06:49:41;;;;;;;16.02;10.95;;;13.20;99.90;;;;;;4862432;29;20044;-87
2022/06/07 06:52:10;;;;;;;21.23;11.68;;;13.20;99.90;;;;;;4868830;29;20056;-88
2022/06/07 06:54:37;;;;;;;18.33;11.43;;;13.30;99.90;;;;;;4866674;29;20044;-88
2022/06/07 06:57:05;;;;;;;23.30;12.43;;;13.30;99.90;;;;;;4857872;29;20048;-88
2022/06/07 06:59:31;;;;;;;14.80;11.05;;;13.30;99.90;;;;;;4872824;29;20090;-88
2022/06/07 07:01:57;;;;;;;17.20;10.77;;;13.40;99.90;;;;;;4869138;29;20051;-90
2022/06/07 07:04:23;;;;;;;18.88;9.88;;;13.40;99.90;;;;;;4868125;29;20048;-88
2022/06/07 07:06:50;;;;;;;16.88;9.90;;;13.40;99.90;;;;;;4875393;29;20089;-87
2022/06/07 07:09:19;;;;;;;15.48;10.05;;;13.40;99.90;;;;;;4873953;29;20068;-87
2022/06/07 07:11:50;;;;;;;15.45;10.30;;;13.40;99.90;;;;;;4864731;29;20044;-87
2022/06/07 07:14:16;;;;;;;13.85;10.38;;;13.40;99.90;;;;;;4882178;29;20040;-87
2022/06/07 07:16:49;;;;;;;15.57;9.88;;;13.40;99.90;;;;;;4868849;29;20135;-87
2022/06/07 07:19:16;;;;;;;17.35;10.50;;;13.40;99.90;;;;;;4863811;29;20064;-87
2022/06/07 07:21:47;;;;;;;15.52;10.05;;;13.40;99.90;;;;;;4858086;29;20041;-87
2022/06/07 07:24:18;;;;;;;18.83;10.57;;;13.40;99.90;;;;;;4880332;29;20048;-85
2022/06/07 07:26:45;;;;;;;15.63;9.43;;;13.40;99.90;;;;;;4867408;29;20104;-88
2022/06/07 07:29:12;;;;;;;16.13;9.55;;;13.40;99.90;;;;;;4855926;29;20132;-88
2022/06/07 07:31:38;;;;;;;15.32;9.73;;;13.50;99.90;;;;;;4867444;29;20036;-88
2022/06/07 07:34:07;;;;;;;15.10;9.05;;;13.50;99.90;;;;;;4851958;29;20068;-87
2022/06/07 07:36:34;;;;;;;15.07;8.48;;;13.50;99.90;;;;;;4861123;29;20374;-87
2022/06/07 07:39:01;;;;;;;13.07;8.57;;;13.50;99.90;;;;;;4869379;29;20037;-87
2022/06/07 07:41:32;;;;;;;13.05;7.43;;;13.60;99.90;;;;;;4854153;29;20077;-88
2022/06/07 07:44:00;;;;;;;11.77;7.57;;;13.60;99.90;;;;;;4886587;29;20064;-87
2022/06/07 07:46:29;;;;;;;14.35;7.55;;;13.60;99.90;;;;;;4876531;29;20410;-88
2022/06/07 07:48:56;;;;;;;13.48;7.68;;;13.60;99.90;;;;;;4865438;29;20045;-87
2022/06/07 07:51:28;;;;;;;11.55;7.30;;;13.60;99.90;;;;;;4885920;29;20052;-87
2022/06/07 07:53:56;;;;;;;14.35;6.95;;;13.60;99.90;;;;;;4904557;29;20040;-87
2022/06/07 07:56:23;;;;;;;12.75;6.95;;;13.60;99.90;;;;;;4888869;29;20028;-87
2022/06/07 07:58:50;;;;;;;16.25;7.25;;;13.60;99.90;;;;;;4867734;29;20385;-87
2022/06/07 08:01:18;;;;;;;13.73;6.40;;;13.70;99.90;;;;;;4873911;29;20040;-86
2022/06/07 08:03:44;;;;;;;11.63;6.63;;;13.70;99.90;;;;;;4879304;29;20060;-89
2022/06/07 08:06:15;;;;;;;11.30;6.63;;;13.70;99.90;;;;;;4871507;29;20048;-87
2022/06/07 08:08:41;;;;;;;13.18;7.20;;;13.70;99.90;;;;;;4886491;29;20104;-87
2022/06/07 08:11:07;;;;;;;10.85;6.40;;;13.60;99.90;;;;;;4883401;29;20045;-89
2022/06/07 08:13:33;;;;;;;13.63;7.45;;;13.60;99.90;;;;;;4867205;29;20041;-88
2022/06/07 08:16:00;;;;;;;16.17;7.22;;;13.60;99.90;;;;;;4872534;29;20509;-87
2022/06/07 08:18:26;;;;;;;12.07;6.68;;;13.60;99.90;;;;;;4877412;29;20390;-88
2022/06/07 08:20:58;;;;;;;14.07;7.20;;;13.70;99.90;;;;;;4870743;29;20437;-89
2022/06/07 08:23:24;;;;;;;11.82;7.00;;;13.70;99.90;;;;;;4887406;29;20040;-86
2022/06/07 08:25:50;;;;;;;14.75;7.32;;;13.70;99.90;;;;;;4883516;29;20048;-89
2022/06/07 08:28:16;;;;;;;16.55;8.10;;;13.70;99.90;;;;;;4853224;29;20193;-89
2022/06/07 08:30:46;;;;;;;11.55;6.90;;;13.70;99.90;;;;;;4868285;29;20507;-88
2022/06/07 08:38:41;;;;;;;12.02;7.57;;;13.70;99.90;;;;;;4874303;29;20044;-88
2022/06/07 08:41:17;;;;;;;14.25;7.97;;;13.80;99.90;;;;;;4849974;29;20513;-88
2022/06/07 08:43:43;;;;;;;12.00;7.28;;;13.80;99.90;;;;;;4887400;29;20056;-89
2022/06/07 08:46:11;;;;;;;14.73;8.85;;;13.80;99.90;;;;;;4873146;29;20044;-89
2022/06/07 08:48:40;;;;;;;13.90;8.27;;;13.80;99.90;;;;;;4884175;29;20068;-83
2022/06/07 08:51:28;;;;;;;14.75;7.97;;;13.80;99.90;;;;;;4854279;29;20044;-87
2022/06/07 08:53:59;;;;;;;12.50;7.78;;;13.80;99.90;;;;;;4878914;29;20048;-88
2022/06/07 08:56:30;;;;;;;16.73;8.60;;;13.90;99.90;;;;;;4863852;29;20486;-87
2022/06/07 08:59:01;;;;;;;11.30;8.25;;;13.90;99.90;;;;;;4848240;29;20490;-86
2022/06/07 09:02:00;;;;;;;12.73;7.45;;;13.90;99.90;;;;;;4878504;29;20080;-89
2022/06/07 09:04:32;;;;;;;14.55;8.45;;;13.90;99.90;;;;;;4903468;29;20056;-90
2022/06/07 09:07:04;;;;;;;12.35;7.57;;;13.90;99.90;;;;;;4886118;29;20046;-87
2022/06/07 09:12:24;;;;;;;10.90;6.70;;;13.90;99.90;;;;;;4899702;29;20401;-87
2022/06/07 09:15:23;;;;;;;13.30;6.70;;;14.00;99.90;;;;;;4884636;29;20044;-86
2022/06/07 09:17:56;;;;;;;10.82;5.57;;;14.10;99.90;;;;;;4875006;29;20045;-88
2022/06/07 09:20:31;;;;;;;11.13;5.47;;;14.10;99.90;;;;;;4898628;29;20108;-86
2022/06/07 09:23:00;;;;;;;11.03;5.23;;;14.20;99.90;;;;;;4893797;29;20060;-86
2022/06/07 09:25:34;;;;;;;13.27;4.72;;;14.30;99.90;;;;;;4884214;29;20051;-87
2022/06/07 09:28:01;;;;;;;13.02;4.80;;;14.40;99.90;;;;;;4880899;29;20041;-86
2022/06/07 09:30:41;;;;;;;7.55;4.25;;;14.60;99.90;;;;;;4895831;29;20084;-84
2022/06/07 09:33:10;;;;;;;8.82;4.30;;;14.70;99.90;;;;;;4901329;29;20036;-87
2022/06/07 09:35:42;;;;;;;13.15;4.05;;;14.80;99.90;;;;;;4903419;29;20489;-85
2022/06/07 09:38:17;;;;;;;12.73;4.20;;;14.70;99.90;;;;;;4898184;29;20055;-86
2022/06/07 09:40:54;;;;;;;8.75;4.53;;;14.70;99.90;;;;;;4878626;29;20041;-88
2022/06/07 09:43:27;;;;;;;11.15;4.35;;;14.60;99.90;;;;;;4897598;29;20055;-86
2022/06/07 09:46:07;;;;;;;8.35;4.32;;;14.60;99.90;;;;;;4884522;29;20041;-87
2022/06/07 09:48:38;;;;;;;7.00;4.20;;;14.50;99.90;;;;;;4876219;29;20454;-87
2022/06/07 09:51:09;;;;;;;10.05;4.13;;;14.50;99.90;;;;;;4896436;29;20200;-87
2022/06/07 09:54:02;;;;;;;7.97;4.20;;;14.50;99.90;;;;;;4886316;29;20115;-86
2022/06/07 09:56:53;;;;;;;10.07;4.75;;;14.40;99.90;;;;;;4896679;29;20664;-87
2022/06/07 09:59:36;;;;;;;9.23;4.63;;;14.40;99.90;;;;;;4883833;29;20052;-86
2022/06/07 10:02:49;;;;;;;8.65;4.28;;;14.40;99.90;;;;;;4900919;29;20135;-85
2022/06/07 10:05:39;;;;;;;10.52;5.05;;;14.40;99.90;;;;;;4908731;29;20495;-82
2022/06/07 10:08:29;;;;;;;10.95;4.43;;;14.40;99.90;;;;;;4873374;29;20040;-87
2022/06/07 10:10:59;;;;;;;11.90;4.50;;;14.40;99.90;;;;;;4901579;29;20044;-87
2022/06/07 10:13:43;;;;;;;12.23;4.63;;;14.40;99.90;;;;;;4873283;29;20059;-87
2022/06/07 10:16:35;;;;;;;12.00;4.80;;;14.50;99.90;;;;;;4888827;29;20495;-86
2022/06/07 10:19:29;;;;;;;10.18;4.75;;;14.40;99.90;;;;;;4888597;29;20075;-89
2022/06/07 10:22:13;;;;;;;12.38;4.47;;;14.50;99.90;;;;;;4899854;29;20104;-87
2022/06/07 10:24:56;;;;;;;13.40;5.30;;;14.40;99.90;;;;;;4884613;29;20036;-89
2022/06/07 10:27:40;;;;;;;10.23;5.47;;;14.40;99.90;;;;;;4879303;29;20128;-89
2022/06/07 10:30:18;;;;;;;11.20;4.90;;;14.40;99.90;;;;;;4886053;29;20040;-88
2022/06/07 10:32:51;;;;;;;12.02;4.95;;;14.40;99.90;;;;;;4895451;29;20100;-90
2022/06/07 10:35:39;;;;;;;10.55;5.18;;;14.40;99.90;;;;;;4886511;29;20044;-86
2022/06/07 10:38:40;;;;;;;12.55;5.20;;;14.40;99.90;;;;;;4900813;29;20036;-86
2022/06/07 10:41:30;;;;;;;14.40;5.72;;;14.40;99.90;;;;;;4874988;29;20067;-88
2022/06/07 10:44:06;;;;;;;11.95;5.20;;;14.40;99.90;;;;;;4882700;29;20680;-85
2022/06/07 10:46:33;;;;;;;;;;;14.50;99.90;;;;;;4897235;29;20052;-85
2022/06/07 10:49:25;;;;;;;10.18;5.00;;;14.50;99.90;;;;;;4876773;29;20034;-86
2022/06/07 10:55:16;;;;;;;11.63;6.05;;;14.60;99.90;;;;;;4899059;29;20044;-86
2022/06/07 10:57:51;;;;;;;11.05;6.40;;;14.60;99.90;;;;;;4854905;29;20048;-85
2022/06/07 11:00:32;;;;;;;13.95;6.68;;;14.70;99.90;;;;;;4880933;29;20044;-86
2022/06/07 11:03:12;;;;;;;14.57;6.38;;;14.80;99.90;;;;;;4890474;29;20518;-86
2022/06/07 11:11:43;;;;;;;11.73;6.15;;;15.30;99.90;;;;;;4913669;29;20048;-87
2022/06/07 11:14:23;;;;;;;14.85;5.63;;;15.50;99.90;;;;;;4903357;29;20052;-87
2022/06/07 11:16:48;;;;;;;12.02;5.88;;;15.80;99.90;;;;;;4887222;29;20120;-86
2022/06/07 11:19:15;;;;;;;14.18;5.70;;;15.90;99.90;;;;;;4885394;29;20088;-90
2022/06/07 11:21:45;;;;;;;10.38;5.45;;;16.00;99.90;;;;;;4886279;29;20055;-88
2022/06/07 11:24:14;;;;;;;12.57;5.55;;;16.20;99.90;;;;;;4896337;29;20122;-88
2022/06/07 11:26:55;;;;;;;12.77;5.40;;;16.30;99.90;;;;;;4884411;29;20043;-89
2022/06/07 11:29:22;;;;;;;11.43;5.57;;;16.40;99.90;;;;;;4899983;29;20048;-88
2022/06/07 11:31:49;;;;;;;13.50;5.30;;;16.40;99.90;;;;;;4884969;29;20086;-90
2022/06/07 11:34:34;;;;;;;11.30;5.50;;;16.40;99.90;;;;;;4884115;29;20078;-89
2022/06/07 11:37:15;;;;;;;10.90;5.30;;;16.40;99.90;;;;;;4884973;29;20450;-89
2022/06/07 11:39:40;;;;;;;8.35;4.70;;;16.50;99.90;;;;;;4884987;29;20080;-89
2022/06/07 11:42:21;;;;;;;12.48;5.50;;;16.50;99.90;;;;;;4879235;29;20043;-89
2022/06/07 11:45:05;;;;;;;12.32;5.25;;;16.60;99.90;;;;;;4887446;29;20144;-89
2022/06/07 11:48:09;;;;;;;14.85;5.80;;;16.60;99.90;;;;;;4890262;29;20067;-90
2022/06/07 11:51:04;;;;;;;12.45;6.07;;;16.80;99.90;;;;;;4885662;29;20048;-89
2022/06/07 11:53:34;;;;;;;11.43;5.25;;;17.10;99.90;;;;;;4876050;29;20068;-89
2022/06/07 11:56:30;;;;;;;13.82;5.18;;;17.40;99.90;;;;;;4888480;29;20095;-88
2022/06/07 11:58:59;;;;;;;11.63;4.97;;;17.60;99.90;;;;;;4884660;29;20044;-88
2022/06/07 12:01:39;;;;;;;11.48;4.75;;;17.60;99.90;;;;;;4887740;29;21193;-89
2022/06/07 12:04:32;;;;;;;10.82;4.88;;;17.60;99.90;;;;;;4878083;29;20914;-88
2022/06/07 12:07:05;;;;;;;12.82;5.07;;;17.60;99.90;;;;;;4881306;29;20051;-89
2022/06/07 12:09:32;;;;;;;8.80;4.55;;;17.50;99.90;;;;;;4901952;29;20044;-90
2022/06/07 12:11:58;;;;;;;10.98;4.53;;;17.40;99.90;;;;;;4886843;29;20056;-91
2022/06/07 12:14:35;;;;;;;9.23;4.55;;;17.30;99.90;;;;;;4848964;29;20044;-90
2022/06/07 12:17:25;;;;;;;13.93;5.05;;;17.30;99.90;;;;;;4887353;29;20526;-90
2022/06/07 12:19:51;;;;;;;11.60;4.75;;;17.20;99.90;;;;;;4890901;29;20044;-89
2022/06/07 12:22:23;;;;;;;11.05;4.90;;;17.10;99.90;;;;;;4890162;29;20040;-89
2022/06/07 12:24:53;;;;;;;10.20;4.70;;;17.10;99.90;;;;;;4899948;29;20432;-89
2022/06/07 12:27:42;;;;;;;12.02;4.97;;;17.30;99.90;;;;;;4907260;29;20044;-89
2022/06/07 12:30:30;;;;;;;13.68;5.28;;;17.60;99.90;;;;;;4905172;29;20107;-89
2022/06/07 12:33:12;;;;;;;8.45;4.18;;;17.80;99.90;;;;;;4895981;29;20048;-89
2022/06/07 12:35:54;;;;;;;12.02;5.22;;;18.00;99.90;;;;;;4891285;29;20051;-89
2022/06/07 12:38:20;;;;;;;10.05;5.03;;;18.10;99.90;;;;;;4888806;29;20040;-90
2022/06/07 12:40:48;;;;;;;8.00;4.45;;;18.10;99.90;;;;;;4880978;29;20036;-89
2022/06/07 12:43:28;;;;;;;9.98;4.25;;;18.20;99.90;;;;;;4902582;29;20068;-90
2022/06/07 12:46:07;;;;;;;9.20;4.10;;;18.40;99.90;;;;;;4895079;29;20076;-89
2022/06/07 12:48:40;;;;;;;9.63;4.28;;;18.50;99.90;;;;;;4911414;29;20036;-89
2022/06/07 12:51:24;;;;;;;6.22;4.28;;;18.70;99.90;;;;;;4909886;29;20154;-88
2022/06/07 12:53:59;;;;;;;9.68;4.63;;;19.00;99.90;;;;;;4918474;29;20129;-90
2022/06/07 12:56:30;;;;;;;14.40;4.90;;;19.40;99.90;;;;;;4892867;29;20039;-90
2022/06/07 12:58:58;;;;;;;9.50;4.50;;;19.70;99.90;;;;;;4888944;29;20324;-90
2022/06/07 13:01:30;;;;;;;11.52;4.53;;;19.80;99.90;;;;;;4874283;29;20045;-90
2022/06/07 13:04:04;;;;;;;7.78;4.22;;;19.80;99.90;;;;;;4891347;29;20103;-89
2022/06/07 13:06:30;;;;;;;10.10;4.22;;;19.60;99.90;;;;;;4892254;29;20040;-88
2022/06/07 13:09:17;;;;;;;8.30;5.03;;;19.50;99.90;;;;;;4883963;29;20104;-90
2022/06/07 13:11:43;;;;;;;8.95;4.53;;;19.50;99.90;;;;;;4902336;29;20510;-89
2022/06/07 13:14:14;;;;;;;7.28;4.50;;;19.40;99.90;;;;;;4876583;29;20051;-90
2022/06/07 13:16:42;;;;;;;8.48;4.68;;;19.30;99.90;;;;;;4887146;29;20045;-88
2022/06/07 13:19:13;;;;;;;11.48;4.90;;;19.30;99.90;;;;;;4875366;29;20096;-89
2022/06/07 13:22:08;;;;;;;10.82;4.85;;;19.50;99.90;;;;;;4903117;29;20040;-90